createdAt,value
2023-07-04T00:00:28.071Z,95311.50
2023-07-04T00:03:30.642Z,95307.34
2023-07-04T00:06:33.794Z,95317.34
2023-07-04T00:09:35.531Z,95310.13
2023-07-04T00:12:38.468Z,95301.34
2023-07-04T00:15:45.142Z,95305.13
2023-07-04T00:18:46.900Z,95306.03
2023-07-04T00:21:49.966Z,95297.13
2023-07-04T00:24:51.691Z,95297.47
2023-07-04T00:27:53.397Z,95294.81
2023-07-04T00:30:56.354Z,95307.78
2023-07-04T00:33:58.209Z,95295.94
2023-07-04T00:37:01.402Z,95289.34
2023-07-04T00:40:03.495Z,95291.66
2023-07-04T00:43:05.762Z,95290.22
2023-07-04T00:46:08.707Z,95294.75
2023-07-04T00:49:17.818Z,95290.72
2023-07-04T00:52:24.208Z,95284.56
2023-07-04T00:55:26.602Z,95287.41
2023-07-04T00:58:28.288Z,95288.59
2023-07-04T01:01:30.051Z,95293.59
2023-07-04T01:04:33.474Z,95291.44
2023-07-04T01:07:42.547Z,95294.06
2023-07-04T01:10:47.293Z,95296.84
2023-07-04T01:13:49.161Z,95298.16
2023-07-04T01:16:51.438Z,95303.31
2023-07-04T01:19:53.971Z,95309.13
2023-07-04T01:23:05.971Z,95296.03
2023-07-04T01:26:26.183Z,95305.22
2023-07-04T01:29:27.979Z,95307.59
2023-07-04T01:32:29.861Z,95316.34
2023-07-04T01:35:31.625Z,95309.66
2023-07-04T01:38:33.639Z,95321.06
2023-07-04T01:41:36.740Z,95316.56
2023-07-04T01:44:38.512Z,95323.88
2023-07-04T01:47:40.852Z,95323.56
2023-07-04T01:50:42.575Z,95331.75
2023-07-04T01:53:44.289Z,95337.53
2023-07-04T01:56:49.776Z,95338.22
2023-07-04T01:59:52.074Z,95336.47
2023-07-04T02:02:53.848Z,95344.44
2023-07-04T02:05:57.959Z,95334.56
2023-07-04T02:08:59.637Z,95335.78
2023-07-04T02:12:02.737Z,95338.84
2023-07-04T02:15:05.546Z,95345.59
2023-07-04T02:18:08.575Z,95336.09
2023-07-04T02:21:10.329Z,95334.34
2023-07-04T02:24:12.081Z,95338.47
2023-07-04T02:27:15.289Z,95336.50
2023-07-04T02:30:17.074Z,95333.00
2023-07-04T02:33:18.804Z,95340.34
2023-07-04T02:36:20.900Z,95332.94
2023-07-04T02:39:22.869Z,95340.38
2023-07-04T02:42:25.950Z,95334.34
2023-07-04T02:45:27.726Z,95331.28
2023-07-04T02:48:29.480Z,95332.28
2023-07-04T02:51:31.170Z,95339.81
2023-07-04T02:54:32.890Z,95341.28
2023-07-04T02:57:35.989Z,95331.16
2023-07-04T03:00:37.714Z,95338.72
2023-07-04T03:03:39.502Z,95347.34
2023-07-04T03:06:41.376Z,95342.03
2023-07-04T03:09:43.111Z,95338.28
2023-07-04T03:12:46.295Z,95341.25
2023-07-04T03:15:48.048Z,95349.72
2023-07-04T03:18:50.274Z,95347.34
2023-07-04T03:21:52.019Z,95353.09
2023-07-04T03:24:53.764Z,95358.66
2023-07-04T03:27:56.863Z,95359.34
2023-07-04T03:30:58.589Z,95361.75
2023-07-04T03:34:00.363Z,95361.75
2023-07-04T03:37:02.050Z,95378.88
2023-07-04T03:40:04.892Z,95360.88
2023-07-04T03:43:07.979Z,95370.28
2023-07-04T03:46:09.703Z,95376.84
2023-07-04T03:49:11.398Z,95364.47
2023-07-04T03:52:13.190Z,95377.19
2023-07-04T03:55:14.900Z,95377.00
2023-07-04T03:58:18.361Z,95373.00
2023-07-04T04:01:22.096Z,95374.25
2023-07-04T04:04:23.928Z,95367.69
2023-07-04T04:07:26.412Z,95374.28
2023-07-04T04:10:28.177Z,95373.69
2023-07-04T04:13:33.753Z,95381.97
2023-07-04T04:16:36.295Z,95385.00
2023-07-04T04:19:41.252Z,95398.25
2023-07-04T04:22:44.573Z,95406.00
2023-07-04T04:25:49.028Z,95403.72
2023-07-04T04:28:54.819Z,95411.81
2023-07-04T04:31:57.674Z,95413.69
2023-07-04T04:35:02.169Z,95405.75
2023-07-04T04:38:03.902Z,95411.03
2023-07-04T04:41:07.580Z,95411.72
2023-07-04T04:44:12.467Z,95421.06
2023-07-04T04:47:16.238Z,95411.63
2023-07-04T04:50:18.002Z,95419.06
2023-07-04T04:53:21.152Z,95417.19
2023-07-04T04:56:23.731Z,95419.50
2023-07-04T04:59:26.823Z,95425.19
2023-07-04T05:02:30.705Z,95426.56
2023-07-04T05:05:32.781Z,95428.84
2023-07-04T05:08:35.441Z,95424.31
2023-07-04T05:11:37.622Z,95419.59
2023-07-04T05:14:40.709Z,95423.38
2023-07-04T05:17:42.915Z,95439.31
2023-07-04T05:20:45.515Z,95436.38
2023-07-04T05:23:49.307Z,95439.03
2023-07-04T05:26:51.484Z,95442.78
2023-07-04T05:29:57.036Z,95443.72
2023-07-04T05:32:59.054Z,95454.22
2023-07-04T05:36:06.888Z,95457.31
2023-07-04T05:39:09.419Z,95456.88
2023-07-04T05:42:11.602Z,95457.06
2023-07-04T05:45:15.607Z,95457.84
2023-07-04T05:48:20.158Z,95460.13
2023-07-04T05:51:25.047Z,95451.44
2023-07-04T05:54:26.988Z,95457.75
2023-07-04T05:57:31.187Z,95457.44
2023-07-04T06:00:35.518Z,95461.78
2023-07-04T06:03:41.622Z,95462.47
2023-07-04T06:06:45.899Z,95459.97
2023-07-04T06:09:47.638Z,95460.88
2023-07-04T06:12:49.391Z,95465.84
2023-07-04T06:15:53.064Z,95457.09
2023-07-04T06:18:55.371Z,95462.78
2023-07-04T06:21:58.123Z,95466.00
2023-07-04T06:25:00.716Z,95462.44
2023-07-04T06:28:02.799Z,95462.97
2023-07-04T06:31:13.882Z,95464.06
2023-07-04T06:34:15.881Z,95473.94
2023-07-04T06:37:20.966Z,95471.53
2023-07-04T06:40:22.771Z,95478.88
2023-07-04T06:43:25.668Z,95477.44
2023-07-04T06:46:32.340Z,95484.88
2023-07-04T06:49:36.922Z,95488.25
2023-07-04T06:52:39.394Z,95488.81
2023-07-04T06:55:42.260Z,95494.59
2023-07-04T06:58:47.744Z,95490.69
2023-07-04T07:01:51.255Z,95495.81
2023-07-04T07:04:53.791Z,95491.56
2023-07-04T07:07:55.568Z,95481.53
2023-07-04T07:10:59.112Z,95487.63
2023-07-04T07:14:01.748Z,95496.63
2023-07-04T07:17:06.150Z,95491.81
2023-07-04T07:20:08.930Z,95484.69
2023-07-04T07:23:14.882Z,95477.13
2023-07-04T07:26:20.207Z,95483.06
2023-07-04T07:29:26.899Z,95482.72
2023-07-04T07:32:30.232Z,95480.00
2023-07-04T07:35:32.579Z,95478.03
2023-07-04T07:38:34.272Z,95472.56
2023-07-04T07:41:39.559Z,95482.72
2023-07-04T07:44:41.579Z,95493.56
2023-07-04T07:47:44.752Z,95498.19
2023-07-04T07:50:48.243Z,95488.97
2023-07-04T07:53:51.468Z,95493.47
2023-07-04T07:56:53.291Z,95493.22
2023-07-04T07:59:55.766Z,95488.38
2023-07-04T08:02:59.131Z,95476.41
2023-07-04T08:06:02.122Z,95471.72
2023-07-04T08:09:07.364Z,95474.53
2023-07-04T08:12:09.209Z,95479.31
2023-07-04T08:15:11.391Z,95479.13
2023-07-04T08:18:16.858Z,95474.63
2023-07-04T08:21:19.338Z,95477.63
2023-07-04T08:24:25.255Z,95480.28
2023-07-04T08:27:30.075Z,95487.72
2023-07-04T08:30:33.318Z,95476.41
2023-07-04T08:33:36.981Z,95482.88
2023-07-04T08:36:39.702Z,95484.31
2023-07-04T08:39:42.054Z,95484.50
2023-07-04T08:42:47.422Z,95491.69
2023-07-04T08:45:49.984Z,95487.53
2023-07-04T08:48:54.132Z,95490.28
2023-07-04T08:52:01.030Z,95499.44
2023-07-04T08:55:03.161Z,95497.66
2023-07-04T08:58:04.928Z,95490.31
2023-07-04T09:01:17.900Z,95481.88
2023-07-04T09:04:31.995Z,95500.28
2023-07-04T09:07:41.209Z,95489.97
2023-07-04T09:10:45.038Z,95499.41
2023-07-04T09:13:50.762Z,95504.28
2023-07-04T09:16:55.523Z,95491.44
2023-07-04T09:20:02.515Z,95498.66
2023-07-04T09:23:11.967Z,95516.78
2023-07-04T09:26:18.650Z,95490.88
2023-07-04T09:29:22.977Z,95492.75
2023-07-04T09:32:26.042Z,95504.72
2023-07-04T09:35:29.779Z,95498.94
2023-07-04T09:38:51.280Z,95499.69
2023-07-04T09:42:13.136Z,95494.47
2023-07-04T09:45:24.257Z,95485.72
2023-07-04T09:48:26.407Z,95486.25
2023-07-04T09:51:31.483Z,95491.53
2023-07-04T09:54:36.827Z,95494.56
2023-07-04T09:57:43.074Z,95482.56
2023-07-04T10:00:46.478Z,95484.28
2023-07-04T10:03:49.597Z,95497.25
2023-07-04T10:06:56.321Z,95486.41
2023-07-04T10:10:03.547Z,95486.84
2023-07-04T10:13:08.396Z,95487.47
2023-07-04T10:16:21.315Z,95479.50
2023-07-04T10:19:24.565Z,95477.22
2023-07-04T10:22:32.633Z,95481.84
2023-07-04T10:25:37.816Z,95475.44
2023-07-04T10:31:42.917Z,95468.59
2023-07-04T10:34:48.058Z,95471.94
2023-07-04T10:37:56.033Z,95475.59
2023-07-04T10:40:59.898Z,95474.69
2023-07-04T10:44:06.630Z,95465.69
2023-07-04T10:47:13.103Z,95466.41
2023-07-04T10:50:20.302Z,95480.53
2023-07-04T10:53:24.325Z,95469.50
2023-07-04T10:56:31.302Z,95464.16
2023-07-04T10:59:39.661Z,95462.63
2023-07-04T11:02:46.986Z,95467.38
2023-07-04T11:05:54.965Z,95479.47
2023-07-04T11:08:59.732Z,95467.69
2023-07-04T11:12:04.105Z,95456.38
2023-07-04T11:15:19.964Z,95453.63
2023-07-04T11:18:25.105Z,95461.28
2023-07-04T11:21:27.189Z,95446.28
2023-07-04T11:24:34.442Z,95451.03
2023-07-04T11:27:36.535Z,95451.31
2023-07-04T11:30:42.345Z,95458.19
2023-07-04T11:34:01.925Z,95447.50
2023-07-04T11:37:05.015Z,95450.53
2023-07-04T11:40:21.594Z,95440.88
2023-07-04T11:43:26.920Z,95442.25
2023-07-04T11:46:32.250Z,95444.22
2023-07-04T11:49:37.594Z,95436.56
2023-07-04T11:52:43.351Z,95443.00
2023-07-04T11:56:05.791Z,95433.63
2023-07-04T11:59:47.132Z,95429.78
2023-07-04T12:02:50.120Z,95427.34
2023-07-04T12:05:55.287Z,95426.19
2023-07-04T12:08:59.728Z,95420.63
2023-07-04T12:12:07.001Z,95414.13
2023-07-04T12:15:12.385Z,95419.38
2023-07-04T12:18:17.795Z,95425.09
2023-07-04T12:21:21.186Z,95427.06
2023-07-04T12:24:25.133Z,95424.31
2023-07-04T12:27:29.476Z,95418.09
2023-07-04T12:33:39.823Z,95413.28
2023-07-04T12:36:42.170Z,95410.03
2023-07-04T12:39:48.446Z,95399.38
2023-07-04T12:42:53.394Z,95406.63
2023-07-04T12:52:27.921Z,95381.44
2023-07-04T12:55:33.607Z,95371.66
2023-07-04T12:58:40.794Z,95368.16
2023-07-04T13:01:43.350Z,95371.28
2023-07-04T13:04:45.275Z,95368.81
2023-07-04T13:07:50.820Z,95360.44
2023-07-04T13:10:56.163Z,95356.44
2023-07-04T13:14:07.201Z,95353.66
2023-07-04T13:17:12.580Z,95343.69
2023-07-04T13:20:17.972Z,95345.03
2023-07-04T13:26:28.590Z,95339.41
2023-07-04T13:35:44.657Z,95328.31
2023-07-04T13:41:56.283Z,95328.16
2023-07-04T13:48:06.692Z,95328.22
2023-07-04T13:51:08.781Z,95313.94
2023-07-04T13:54:11.976Z,95322.31
2023-07-04T13:57:14.438Z,95315.25
2023-07-04T14:00:24.172Z,95316.84
2023-07-04T14:06:34.301Z,95320.09
2023-07-04T14:09:38.626Z,95310.66
2023-07-04T14:12:40.626Z,95300.19
2023-07-04T14:22:04.480Z,95297.38
2023-07-04T14:25:07.093Z,95300.28
2023-07-04T14:28:11.236Z,95292.28
2023-07-04T14:31:16.867Z,95289.94
2023-07-04T14:34:18.985Z,95294.31
2023-07-04T14:37:21.073Z,95294.59
2023-07-04T14:43:27.501Z,95288.91
2023-07-04T14:46:31.176Z,95289.28
2023-07-04T14:49:32.918Z,95289.34
2023-07-04T14:52:37.776Z,95287.66
2023-07-04T14:55:40.174Z,95284.13
2023-07-04T14:58:43.683Z,95284.16
2023-07-04T15:01:48.180Z,95291.38
2023-07-04T15:04:50.917Z,95285.63
2023-07-04T15:07:53.390Z,95276.69
2023-07-04T15:10:55.470Z,95269.25
2023-07-04T15:14:01.626Z,95270.56
2023-07-04T15:17:07.599Z,95259.28
2023-07-04T15:20:11.268Z,95256.13
2023-07-04T15:23:14.332Z,95255.34
2023-07-04T15:26:26.107Z,95258.31
2023-07-04T15:29:29.394Z,95261.31
2023-07-04T15:32:32.720Z,95260.19
2023-07-04T15:35:34.765Z,95263.19
2023-07-04T15:38:36.974Z,95259.75
2023-07-04T15:41:40.898Z,95254.72
2023-07-04T15:44:42.874Z,95250.56
2023-07-04T15:47:47.917Z,95251.31
2023-07-04T15:50:50.088Z,95260.53
2023-07-04T15:53:52.058Z,95256.88
2023-07-04T15:56:55.810Z,95247.88
2023-07-04T15:59:59.205Z,95258.28
2023-07-04T16:03:03.571Z,95248.44
2023-07-04T16:06:10.766Z,95247.19
2023-07-04T16:09:14.329Z,95249.94
2023-07-04T16:12:16.175Z,95243.34
2023-07-04T16:15:21.040Z,95243.63
2023-07-04T16:18:25.504Z,95249.94
2023-07-04T16:21:27.599Z,95245.16
2023-07-04T16:24:30.274Z,95246.69
2023-07-04T16:27:32.730Z,95241.34
2023-07-04T16:30:35.166Z,95243.38
2023-07-04T16:33:39.546Z,95245.63
2023-07-04T16:36:41.716Z,95242.38
2023-07-04T16:39:43.889Z,95255.59
2023-07-04T16:42:46.436Z,95258.22
2023-07-04T16:45:51.000Z,95260.84
2023-07-04T16:48:57.321Z,95260.28
2023-07-04T16:52:01.701Z,95246.25
2023-07-04T16:55:04.279Z,95253.47
2023-07-04T16:58:07.692Z,95254.75
2023-07-04T17:01:09.485Z,95250.00
2023-07-04T17:04:13.910Z,95256.47
2023-07-04T17:07:18.279Z,95256.38
2023-07-04T17:10:21.205Z,95257.91
2023-07-04T17:16:30.069Z,95263.88
2023-07-04T17:19:35.789Z,95265.94
2023-07-04T17:22:40.376Z,95266.22
2023-07-04T17:25:46.239Z,95265.09
2023-07-04T17:28:48.066Z,95261.00
2023-07-04T17:31:50.759Z,95258.16
2023-07-04T17:34:56.976Z,95263.19
2023-07-04T17:38:00.859Z,95261.44
2023-07-04T17:41:04.791Z,95262.78
2023-07-04T17:44:07.946Z,95255.88
2023-07-04T17:47:10.986Z,95268.66
2023-07-04T17:50:18.690Z,95268.66
2023-07-04T17:53:22.091Z,95272.16
2023-07-04T17:56:26.090Z,95270.94
2023-07-04T17:59:29.342Z,95265.13
2023-07-04T18:02:32.784Z,95271.06
2023-07-04T18:05:38.298Z,95275.53
2023-07-04T18:08:43.727Z,95270.97
2023-07-04T18:11:47.162Z,95274.22
2023-07-04T18:14:53.408Z,95274.41
2023-07-04T18:17:57.263Z,95272.81
2023-07-04T18:21:07.759Z,95269.84
2023-07-04T18:24:13.387Z,95276.53
2023-07-04T18:27:17.053Z,95279.47
2023-07-04T18:30:19.741Z,95277.09
2023-07-04T18:33:22.602Z,95281.66
2023-07-04T18:36:28.851Z,95282.72
2023-07-04T18:39:31.842Z,95286.03
2023-07-04T18:42:37.640Z,95290.22
2023-07-04T18:45:45.420Z,95292.22
2023-07-04T18:48:50.454Z,95291.84
2023-07-04T18:51:55.249Z,95302.31
2023-07-04T18:54:58.548Z,95300.03
2023-07-04T18:58:01.987Z,95301.56
2023-07-04T19:01:12.808Z,95308.50
2023-07-04T19:04:17.464Z,95308.78
2023-07-04T19:07:22.720Z,95314.59
2023-07-04T19:10:27.770Z,95312.09
2023-07-04T19:13:34.316Z,95310.66
2023-07-04T19:16:40.026Z,95320.97
2023-07-04T19:19:45.071Z,95327.50
2023-07-04T19:22:53.820Z,95320.81
2023-07-04T19:25:57.815Z,95332.22
2023-07-04T19:29:01.477Z,95342.88
2023-07-04T19:32:06.291Z,95347.22
2023-07-04T19:35:11.306Z,95341.06
2023-07-04T19:38:26.055Z,95356.56
2023-07-04T19:41:31.467Z,95352.91
2023-07-04T19:44:38.770Z,95355.38
2023-07-04T19:47:42.742Z,95358.25
2023-07-04T19:50:46.591Z,95366.69
2023-07-04T19:53:54.294Z,95363.53
2023-07-04T19:57:10.974Z,95363.88
2023-07-04T20:00:16.758Z,95368.06
2023-07-04T20:03:21.139Z,95367.88
2023-07-04T20:06:25.562Z,95359.00
2023-07-04T20:09:31.099Z,95356.25
2023-07-04T20:12:34.723Z,95352.63
2023-07-04T20:15:42.798Z,95358.44
2023-07-04T20:18:46.584Z,95351.75
2023-07-04T20:21:50.450Z,95347.94
2023-07-04T20:24:56.037Z,95352.13
2023-07-04T20:28:01.971Z,95347.53
2023-07-04T20:31:06.884Z,95355.19
2023-07-04T20:34:12.510Z,95355.56
2023-07-04T20:37:18.864Z,95356.59
2023-07-04T20:40:23.612Z,95354.50
2023-07-04T20:43:26.833Z,95359.19
2023-07-04T20:46:29.369Z,95363.81
2023-07-04T20:49:32.045Z,95359.69
2023-07-04T20:52:34.117Z,95360.78
2023-07-04T20:55:38.774Z,95359.75
2023-07-04T20:58:43.111Z,95362.47
2023-07-04T21:01:45.230Z,95362.94
2023-07-04T21:04:52.316Z,95354.81
2023-07-04T21:07:56.543Z,95349.19
2023-07-04T21:11:02.584Z,95347.19
2023-07-04T21:14:04.757Z,95351.94
2023-07-04T21:17:07.652Z,95347.66
2023-07-04T21:20:10.087Z,95342.34
2023-07-04T21:23:12.230Z,95347.69
2023-07-04T21:26:15.566Z,95344.63
2023-07-04T21:29:18.820Z,95348.91
2023-07-04T21:32:22.372Z,95349.25
2023-07-04T21:35:24.200Z,95339.91
2023-07-04T21:38:26.188Z,95348.03
2023-07-04T21:41:31.616Z,95352.91
2023-07-04T21:44:35.970Z,95351.56
2023-07-04T21:47:39.006Z,95348.97
2023-07-04T21:50:41.093Z,95339.19
2023-07-04T21:53:43.388Z,95340.56
2023-07-04T21:56:46.690Z,95335.53
2023-07-04T21:59:49.849Z,95339.38
2023-07-04T22:02:51.985Z,95330.97
2023-07-04T22:06:01.797Z,95332.19
2023-07-04T22:09:04.055Z,95325.91
2023-07-04T22:12:08.718Z,95326.06
2023-07-04T22:15:11.624Z,95328.03
2023-07-04T22:18:14.076Z,95324.84
2023-07-04T22:21:16.896Z,95320.34
2023-07-04T22:24:18.651Z,95319.34
2023-07-04T22:27:22.900Z,95325.19
2023-07-04T22:30:26.941Z,95318.75
2023-07-04T22:33:31.113Z,95323.22
2023-07-04T22:36:35.939Z,95319.66
2023-07-04T22:39:37.809Z,95328.06
2023-07-04T22:42:43.286Z,95328.81
2023-07-04T22:45:49.083Z,95331.47
2023-07-04T22:48:51.672Z,95328.13
2023-07-04T22:51:54.333Z,95325.84
2023-07-04T22:54:56.068Z,95332.09
2023-07-04T22:58:00.161Z,95322.38
2023-07-04T23:01:07.602Z,95322.31
2023-07-04T23:04:09.349Z,95323.47
2023-07-04T23:07:11.328Z,95315.81
2023-07-04T23:10:13.103Z,95309.94
2023-07-04T23:13:16.252Z,95309.13
2023-07-04T23:16:20.385Z,95301.78
2023-07-04T23:19:22.332Z,95306.16
2023-07-04T23:22:24.045Z,95296.94
2023-07-04T23:25:28.517Z,95298.47
2023-07-04T23:28:35.208Z,95290.97
2023-07-04T23:31:37.008Z,95282.22
2023-07-04T23:34:38.721Z,95286.59
2023-07-04T23:37:41.186Z,95288.63
2023-07-04T23:40:43.347Z,95280.06
2023-07-04T23:43:47.038Z,95277.47
2023-07-04T23:46:49.079Z,95272.84
2023-07-04T23:49:51.025Z,95279.59
2023-07-04T23:52:52.995Z,95267.47
2023-07-04T23:55:56.231Z,95264.72
2023-07-04T23:58:59.685Z,95261.03
